Time;durP1;ratioP1;P1;durP2;ratioP2;P2;SDS_P1;SDS_P2;PMS_P1;PMS_P2;Temp;Humidity;BMP_temperature;BMP_pressure;BME280_temperature;BME280_humidity;BME280_pressure;Samples;Min_cycle;Max_cycle;Signal;HPM_P1;HPM_P2
2021/08/23 00:01:51;;;;;;;8.73;7.82;;;;;;;17.91;88.68;100657.06;5015882;28;20049;-77
2021/08/23 00:04:17;;;;;;;9.68;7.57;;;;;;;17.90;88.86;100652.66;5020614;28;20037;-76
2021/08/23 00:06:42;;;;;;;10.82;9.00;;;;;;;17.86;88.71;100646.53;5016574;28;20045;-76
2021/08/23 00:09:07;;;;;;;11.20;8.80;;;;;;;17.89;88.44;100642.91;5015782;28;20121;-77
2021/08/23 00:11:33;;;;;;;8.93;7.18;;;;;;;17.93;88.33;100637.41;5018882;28;20022;-76
2021/08/23 00:13:58;;;;;;;10.38;7.05;;;;;;;17.90;87.67;100633.97;5015316;28;20084;-77
2021/08/23 00:16:23;;;;;;;9.02;7.43;;;;;;;17.85;87.71;100628.78;5014220;28;20033;-76
2021/08/23 00:18:49;;;;;;;7.93;6.72;;;;;;;17.86;87.80;100627.00;5012943;28;20034;-75
2021/08/23 00:21:20;;;;;;;8.95;6.80;;;;;;;17.91;87.64;100633.91;5014807;28;20037;-76
2021/08/23 00:23:50;;;;;;;7.93;7.13;;;;;;;17.80;87.64;100633.41;5014823;28;20048;-76
2021/08/23 00:26:16;;;;;;;8.40;6.65;;;;;;;17.81;87.76;100626.28;5014574;28;20416;-76
2021/08/23 00:28:41;;;;;;;8.32;6.35;;;;;;;17.81;87.91;100623.59;5014892;28;20054;-76
2021/08/23 00:31:06;;;;;;;9.02;6.03;;;;;;;17.83;87.56;100625.28;5013499;28;20038;-76
2021/08/23 00:33:32;;;;;;;8.18;6.38;;;;;;;17.79;87.44;100626.34;5028508;28;20046;-76
2021/08/23 00:35:57;;;;;;;8.13;6.20;;;;;;;17.83;87.80;100624.44;5015237;28;20037;-74
2021/08/23 00:38:22;;;;;;;8.90;6.68;;;;;;;17.81;87.57;100624.47;5015198;28;20030;-76
2021/08/23 00:40:47;;;;;;;9.55;7.05;;;;;;;17.81;87.48;100636.94;5015451;28;20044;-76
2021/08/23 00:43:13;;;;;;;7.25;5.88;;;;;;;17.72;87.62;100636.31;5015042;28;20030;-76
2021/08/23 00:45:38;;;;;;;6.50;4.55;;;;;;;17.72;88.25;100635.44;5014844;28;20072;-76
2021/08/23 00:48:04;;;;;;;6.68;4.68;;;;;;;17.74;88.21;100630.94;5014478;28;20046;-76
2021/08/23 00:50:30;;;;;;;5.13;3.70;;;;;;;17.67;87.61;100629.38;5015489;28;20050;-75
2021/08/23 00:52:56;;;;;;;5.13;3.53;;;;;;;17.66;87.92;100633.00;5015497;28;20045;-77
2021/08/23 00:55:22;;;;;;;6.60;3.53;;;;;;;17.69;87.79;100627.56;5015245;28;20038;-76
2021/08/23 00:57:47;;;;;;;4.35;3.05;;;;;;;17.75;87.74;100632.66;5011710;28;20036;-76
2021/08/23 01:00:13;;;;;;;5.80;3.13;;;;;;;17.75;87.40;100632.66;5015059;28;20055;-77
2021/08/23 01:03:10;;;;;;;4.75;3.20;;;;;;;17.73;86.86;100631.84;5013329;28;20038;-76
2021/08/23 01:05:36;;;;;;;4.40;2.50;;;;;;;17.65;86.68;100631.22;5013385;28;20030;-77
2021/08/23 01:08:10;;;;;;;3.50;2.15;;;;;;;17.55;86.40;100619.13;5013113;28;20044;-76
2021/08/23 01:10:42;;;;;;;3.38;2.15;;;;;;;17.51;87.43;100613.03;5013046;28;20033;-76
2021/08/23 01:13:08;;;;;;;4.55;2.60;;;;;;;17.59;86.93;100616.31;5011190;28;20437;-76
2021/08/23 01:15:34;;;;;;;4.50;2.70;;;;;;;17.58;87.02;100616.34;5013623;28;20551;-77
2021/08/23 01:17:59;;;;;;;3.55;2.40;;;;;;;17.55;87.13;100619.97;5012394;28;20022;-77
2021/08/23 01:20:26;;;;;;;5.85;2.70;;;;;;;17.54;87.65;100623.59;5015686;28;20140;-76
2021/08/23 01:22:53;;;;;;;4.43;2.95;;;;;;;17.56;87.10;100620.88;5014437;28;20555;-76
2021/08/23 01:25:24;;;;;;;4.03;2.55;;;;;;;17.56;86.39;100623.56;5012464;28;20033;-75
2021/08/23 01:28:09;;;;;;;4.32;2.70;;;;;;;17.50;87.06;100617.50;5010291;28;20448;-76
2021/08/23 01:30:46;;;;;;;4.40;3.15;;;;;;;17.53;86.69;100625.41;5011776;28;20041;-76
2021/08/23 01:33:12;;;;;;;5.47;2.70;;;;;;;17.49;86.79;100618.41;5013303;28;20052;-76
2021/08/23 01:35:38;;;;;;;4.57;2.78;;;;;;;17.43;87.22;100621.28;5013028;28;20033;-76
2021/08/23 01:38:04;;;;;;;5.20;3.20;;;;;;;17.41;87.05;100622.25;5013865;28;20041;-77
2021/08/23 01:40:29;;;;;;;4.75;2.90;;;;;;;17.42;86.16;100610.66;5014026;28;20099;-76
2021/08/23 01:42:55;;;;;;;5.82;2.83;;;;;;;17.28;86.86;100616.44;5012710;28;20045;-77
2021/08/23 01:45:20;;;;;;;5.07;2.30;;;;;;;17.32;86.51;100615.44;5013626;28;20104;-77
2021/08/23 01:47:45;;;;;;;3.60;2.38;;;;;;;17.35;86.69;100614.47;5013721;28;20508;-76
2021/08/23 01:50:11;;;;;;;4.75;2.80;;;;;;;17.26;86.69;100612.94;5014741;28;20041;-77
2021/08/23 01:52:36;;;;;;;4.15;2.53;;;;;;;17.33;86.39;100606.50;5016589;28;20038;-77
2021/08/23 01:55:01;;;;;;;4.68;2.55;;;;;;;17.37;85.87;100615.25;5019787;28;20033;-76
2021/08/23 01:57:27;;;;;;;3.70;1.80;;;;;;;17.41;85.60;100612.44;5020717;28;20034;-77
2021/08/23 01:59:52;;;;;;;4.90;2.10;;;;;;;17.33;85.37;100608.31;5021517;28;20065;-77
2021/08/23 02:02:18;;;;;;;3.70;2.25;;;;;;;17.25;85.07;100611.22;5022554;28;20030;-76
2021/08/23 02:04:43;;;;;;;2.38;1.33;;;;;;;17.16;85.22;100608.81;5021799;28;20037;-77
2021/08/23 02:07:09;;;;;;;4.85;1.83;;;;;;;17.15;85.25;100604.44;5020838;28;20052;-77
2021/08/23 02:09:34;;;;;;;4.32;1.73;;;;;;;17.16;85.22;100603.50;5020579;28;20030;-77
2021/08/23 02:11:59;;;;;;;4.45;2.47;;;;;;;17.10;85.77;100607.22;5019030;28;20124;-76
2021/08/23 02:14:25;;;;;;;5.60;2.22;;;;;;;17.12;85.73;100604.53;5019717;28;20049;-77
2021/08/23 02:16:50;;;;;;;4.25;2.15;;;;;;;17.13;85.77;100604.47;5018448;28;20063;-77
2021/08/23 02:19:15;;;;;;;4.55;1.98;;;;;;;17.13;85.92;100606.25;5019284;28;20404;-77
2021/08/23 02:22:07;;;;;;;3.40;1.75;;;;;;;17.19;85.36;100606.09;5018005;28;20392;-77
2021/08/23 02:24:33;;;;;;;3.78;2.08;;;;;;;17.21;85.25;100606.88;5015783;28;20074;-76
2021/08/23 02:26:59;;;;;;;5.93;2.70;;;;;;;17.23;86.00;100599.72;5017276;28;20105;-76
2021/08/23 02:29:24;;;;;;;4.10;2.00;;;;;;;17.23;85.91;100602.38;5017137;28;20026;-77
2021/08/23 02:31:50;;;;;;;5.15;2.80;;;;;;;17.23;86.08;100597.03;5017244;28;20558;-76
2021/08/23 02:34:15;;;;;;;4.95;2.10;;;;;;;17.24;86.11;100594.34;5017468;28;20076;-77
2021/08/23 02:36:41;;;;;;;3.47;1.92;;;;;;;17.24;85.69;100589.00;5020695;28;20164;-77
2021/08/23 02:39:07;;;;;;;7.13;2.50;;;;;;;17.25;85.99;100585.41;5020991;28;20116;-77
2021/08/23 02:41:33;;;;;;;6.97;2.00;;;;;;;17.23;85.96;100583.72;5020157;28;20069;-76
2021/08/23 02:43:58;;;;;;;5.65;2.22;;;;;;;17.20;86.57;100581.16;5021258;28;20046;-76
2021/08/23 02:46:23;;;;;;;3.83;2.17;;;;;;;17.24;86.37;100586.34;5020369;28;20034;-77
2021/08/23 02:48:49;;;;;;;5.60;2.50;;;;;;;17.23;86.28;100587.25;5021816;28;20038;-76
2021/08/23 02:51:14;;;;;;;5.60;2.33;;;;;;;17.30;86.20;100585.25;5021320;28;20038;-76
2021/08/23 02:53:40;;;;;;;3.92;2.10;;;;;;;17.33;86.09;100587.81;5020473;28;20021;-77
2021/08/23 02:56:06;;;;;;;3.17;1.60;;;;;;;17.38;85.84;100591.22;5033974;28;20434;-77
2021/08/23 02:58:31;;;;;;;3.50;1.77;;;;;;;17.34;85.81;100594.88;5018602;28;20030;-76
2021/08/23 03:00:57;;;;;;;3.58;1.60;;;;;;;17.33;86.00;100594.97;5034769;28;20046;-76
2021/08/23 03:03:22;;;;;;;4.55;2.53;;;;;;;17.30;86.00;100594.13;5017709;28;20048;-77
2021/08/23 03:05:47;;;;;;;3.42;1.77;;;;;;;17.42;85.98;100591.97;5017137;28;20042;-77
2021/08/23 03:08:12;;;;;;;6.60;2.65;;;;;;;17.44;85.71;100599.00;5020576;28;20045;-77
2021/08/23 03:10:38;;;;;;;4.32;2.20;;;;;;;17.48;85.05;100600.66;5020951;28;20488;-76
2021/08/23 03:13:05;;;;;;;5.95;2.15;;;;;;;17.51;85.12;100602.34;5021811;28;20484;-76
2021/08/23 03:15:30;;;;;;;3.80;1.83;;;;;;;17.49;85.03;100599.72;5019781;28;20741;-77
2021/08/23 03:17:55;;;;;;;3.75;1.77;;;;;;;17.48;85.46;100591.78;5019550;28;20034;-77
2021/08/23 03:20:21;;;;;;;3.75;2.10;;;;;;;17.43;85.24;100594.59;5021716;28;20041;-77
2021/08/23 03:22:46;;;;;;;3.63;1.95;;;;;;;17.35;85.85;100590.47;5021512;28;20045;-77
2021/08/23 03:25:11;;;;;;;3.92;2.10;;;;;;;17.30;86.05;100588.78;5020311;28;20046;-77
2021/08/23 03:27:37;;;;;;;4.47;2.35;;;;;;;17.29;86.25;100595.06;5017840;28;20106;-76
2021/08/23 03:30:03;;;;;;;3.47;1.83;;;;;;;17.31;86.47;100592.31;5019227;28;20061;-76
2021/08/23 03:32:29;;;;;;;4.82;2.88;;;;;;;17.25;86.78;100592.53;5022169;28;20189;-77
2021/08/23 03:34:54;;;;;;;5.53;2.70;;;;;;;17.23;86.70;100592.56;5023467;28;20317;-77
2021/08/23 03:37:19;;;;;;;10.38;3.10;;;;;;;17.11;86.73;100586.75;5022923;28;20454;-77
2021/08/23 03:39:45;;;;;;;6.53;3.17;;;;;;;17.02;88.04;100594.16;5037875;28;20065;-77
2021/08/23 03:42:10;;;;;;;4.82;3.03;;;;;;;16.98;87.89;100584.50;5021977;28;20492;-77
2021/08/23 03:44:36;;;;;;;4.88;3.00;;;;;;;16.99;88.40;100585.38;5020645;28;20033;-76
2021/08/23 03:47:01;;;;;;;5.15;3.40;;;;;;;17.02;88.03;100591.47;5020821;28;20499;-76
2021/08/23 03:49:27;;;;;;;5.35;2.83;;;;;;;17.07;87.67;100583.34;5019539;28;20037;-76
2021/08/23 03:51:52;;;;;;;5.25;2.83;;;;;;;17.04;87.78;100586.97;5018609;28;20060;-77
2021/08/23 03:54:17;;;;;;;8.48;3.20;;;;;;;17.02;87.83;100583.47;5017721;28;20090;-75
2021/08/23 03:56:43;;;;;;;5.95;3.28;;;;;;;17.07;87.67;100581.53;5023931;28;20050;-77
2021/08/23 03:59:08;;;;;;;7.47;3.20;;;;;;;17.09;87.66;100585.03;5021555;28;20057;-76
2021/08/23 04:01:33;;;;;;;7.82;3.10;;;;;;;17.09;87.92;100585.03;5020073;28;20026;-77
2021/08/23 04:03:59;;;;;;;5.55;2.85;;;;;;;17.07;87.15;100586.00;5020966;28;20049;-77
2021/08/23 04:06:24;;;;;;;4.60;2.92;;;;;;;17.11;87.60;100587.66;5018166;28;20061;-77
2021/08/23 04:08:50;;;;;;;7.40;2.83;;;;;;;17.15;87.50;100593.75;5018159;28;20073;-76
2021/08/23 04:11:16;;;;;;;6.22;2.90;;;;;;;17.15;86.96;100589.28;5018841;28;20030;-76
2021/08/23 04:13:42;;;;;;;5.28;2.92;;;;;;;17.20;87.30;100602.50;5015863;28;20037;-80
2021/08/23 04:16:12;;;;;;;5.15;3.15;;;;;;;17.25;86.73;100605.88;5014989;28;20041;-76
2021/08/23 04:18:38;;;;;;;4.82;2.50;;;;;;;17.24;86.88;100604.16;5014629;28;20034;-76
2021/08/23 04:21:03;;;;;;;5.03;2.85;;;;;;;17.17;86.76;100607.94;5017354;28;20038;-77
2021/08/23 04:23:29;;;;;;;7.68;3.70;;;;;;;17.15;87.17;100604.44;5019914;28;20508;-77
2021/08/23 04:25:54;;;;;;;4.30;2.60;;;;;;;17.13;87.25;100608.94;5019768;28;20034;-75
2021/08/23 04:28:20;;;;;;;6.10;3.00;;;;;;;17.11;87.28;100608.09;5014524;28;20049;-76
2021/08/23 04:30:45;;;;;;;5.65;2.95;;;;;;;17.17;87.14;100606.13;5014850;28;20042;-76
2021/08/23 04:33:10;;;;;;;5.18;2.80;;;;;;;17.17;86.73;100607.94;5015775;28;20038;-75
2021/08/23 04:35:35;;;;;;;7.97;3.40;;;;;;;17.18;87.07;100609.66;5022243;28;20038;-77
2021/08/23 04:38:01;;;;;;;6.88;3.17;;;;;;;17.24;86.62;100602.34;5014155;28;20357;-76
2021/08/23 04:40:26;;;;;;;6.47;3.60;;;;;;;17.18;86.59;100607.84;5014283;28;20420;-76
2021/08/23 04:42:52;;;;;;;11.77;3.58;;;;;;;17.18;86.35;100612.31;5017983;28;20104;-77
2021/08/23 04:45:17;;;;;;;4.20;2.83;;;;;;;17.20;86.62;100610.50;5016025;28;20068;-76
2021/08/23 04:47:42;;;;;;;7.85;3.80;;;;;;;17.20;86.69;100608.69;5030898;28;20121;-77
2021/08/23 04:50:08;;;;;;;5.97;3.88;;;;;;;17.15;86.87;100610.63;5014191;28;20109;-76
2021/08/23 04:52:40;;;;;;;9.38;3.90;;;;;;;17.15;87.44;100612.44;5014762;28;20030;-76
2021/08/23 04:55:06;;;;;;;5.35;3.53;;;;;;;17.14;87.16;100608.91;5015558;28;20049;-76
2021/08/23 04:57:31;;;;;;;7.88;3.22;;;;;;;17.12;87.23;100608.06;5020572;28;20022;-76
2021/08/23 04:59:56;;;;;;;4.45;2.83;;;;;;;17.11;86.95;100605.44;5019968;28;20109;-77
2021/08/23 05:02:22;;;;;;;4.25;2.45;;;;;;;17.16;86.82;100599.06;5021874;28;20065;-76
2021/08/23 05:04:47;;;;;;;5.30;3.03;;;;;;;17.20;86.57;100603.34;5016680;28;20038;-76
2021/08/23 05:07:12;;;;;;;4.90;2.70;;;;;;;17.20;86.42;100603.34;5019072;28;20033;-76
2021/08/23 05:09:38;;;;;;;5.65;3.30;;;;;;;17.18;86.12;100599.84;5012688;28;20104;-76
2021/08/23 05:12:03;;;;;;;7.72;3.13;;;;;;;17.19;86.55;100606.09;5012654;28;20049;-76
2021/08/23 05:14:29;;;;;;;4.75;3.03;;;;;;;17.21;86.96;100609.56;5007548;28;20042;-76
2021/08/23 05:16:54;;;;;;;5.43;2.60;;;;;;;17.23;86.54;100613.06;5009694;28;20034;-76
2021/08/23 05:19:19;;;;;;;5.50;2.42;;;;;;;17.21;86.75;100610.44;5007743;28;20048;-74
2021/08/23 05:21:44;;;;;;;6.30;2.78;;;;;;;17.19;86.64;100611.41;5009977;28;20034;-76
2021/08/23 05:24:10;;;;;;;5.20;3.28;;;;;;;17.09;86.76;100601.03;5009608;28;20041;-76
2021/08/23 05:26:37;;;;;;;3.95;2.60;;;;;;;17.05;87.22;100606.50;5008718;28;20072;-76
2021/08/23 05:29:03;;;;;;;5.47;2.70;;;;;;;17.06;87.52;100609.13;5010154;28;20141;-76
2021/08/23 05:31:28;;;;;;;5.18;2.83;;;;;;;17.06;87.13;100606.47;5011896;28;20069;-76
2021/08/23 05:33:53;;;;;;;4.13;2.33;;;;;;;17.05;87.22;100598.50;5012337;28;20076;-76
2021/08/23 05:36:18;;;;;;;4.60;2.63;;;;;;;17.08;87.74;100609.97;5012026;28;20069;-76
2021/08/23 05:38:44;;;;;;;4.60;2.70;;;;;;;16.99;87.54;100601.38;5011918;28;20041;-76
2021/08/23 05:41:09;;;;;;;5.72;3.25;;;;;;;17.03;88.00;100603.03;5012233;28;20037;-76
2021/08/23 05:43:34;;;;;;;4.18;2.72;;;;;;;17.08;87.93;100609.97;5011831;28;20045;-76
2021/08/23 05:46:00;;;;;;;5.10;3.20;;;;;;;17.11;87.81;100602.78;5011601;28;20083;-76
2021/08/23 05:48:26;;;;;;;7.05;3.42;;;;;;;17.10;87.97;100607.22;5011471;28;20037;-75
2021/08/23 05:50:52;;;;;;;4.72;2.75;;;;;;;17.11;88.00;100601.00;5011777;28;20065;-75
2021/08/23 05:53:17;;;;;;;5.20;3.30;;;;;;;17.17;88.40;100603.47;5011647;28;20034;-76
2021/08/23 05:55:42;;;;;;;5.82;3.10;;;;;;;17.25;87.89;100606.75;5011455;28;20064;-76
2021/08/23 05:58:08;;;;;;;4.60;3.25;;;;;;;17.34;87.71;100608.22;5014985;28;20034;-78
2021/08/23 06:00:33;;;;;;;5.25;3.67;;;;;;;17.33;87.43;100603.84;5011397;28;20084;-76
2021/08/23 06:02:58;;;;;;;5.18;3.60;;;;;;;17.25;87.44;100606.75;5011453;28;20030;-78
2021/08/23 06:05:24;;;;;;;5.95;3.58;;;;;;;17.26;87.58;100603.16;5011202;28;20046;-77
2021/08/23 06:07:49;;;;;;;4.13;3.15;;;;;;;17.31;87.44;100603.00;5026510;28;20093;-78
2021/08/23 06:10:15;;;;;;;4.03;3.00;;;;;;;17.33;87.79;100603.84;5010979;28;20033;-76
2021/08/23 06:12:41;;;;;;;7.32;3.70;;;;;;;17.31;87.62;100603.88;5011555;28;20107;-78
2021/08/23 06:15:07;;;;;;;6.70;3.35;;;;;;;17.32;87.85;100607.44;5011073;28;20046;-77
2021/08/23 06:17:32;;;;;;;7.50;4.65;;;;;;;17.36;87.86;100602.84;5011184;28;20052;-78
2021/08/23 06:19:58;;;;;;;5.68;4.15;;;;;;;17.33;88.03;100606.50;5009093;28;20065;-78
2021/08/23 06:22:23;;;;;;;6.05;3.80;;;;;;;17.28;88.12;100616.44;5011295;28;20042;-77
2021/08/23 06:24:50;;;;;;;5.03;3.40;;;;;;;17.28;88.03;100605.78;5010072;28;20041;-77
2021/08/23 06:27:16;;;;;;;6.85;5.00;;;;;;;17.22;88.12;100606.84;5010818;28;20109;-76
2021/08/23 06:29:41;;;;;;;5.03;3.90;;;;;;;17.24;88.09;100607.69;5010947;28;20042;-78
2021/08/23 06:32:07;;;;;;;7.75;4.25;;;;;;;17.26;88.28;100607.63;5011263;28;20042;-78
2021/08/23 06:34:32;;;;;;;5.32;3.90;;;;;;;17.28;88.39;100611.09;5011294;28;20059;-77
2021/08/23 06:36:58;;;;;;;6.43;4.03;;;;;;;17.29;88.61;100612.84;5010804;28;20046;-78
2021/08/23 06:39:23;;;;;;;5.88;3.40;;;;;;;17.25;88.27;100617.41;5025250;28;20042;-78
2021/08/23 06:41:50;;;;;;;6.95;3.25;;;;;;;17.27;88.74;100606.72;5013187;28;20030;-78
2021/08/23 06:44:16;;;;;;;6.03;3.75;;;;;;;17.33;88.86;100606.50;5010675;28;20431;-77
2021/08/23 06:46:41;;;;;;;4.13;2.60;;;;;;;17.39;88.81;100608.94;5010262;28;20124;-77
2021/08/23 06:49:07;;;;;;;3.42;2.28;;;;;;;17.27;88.65;100612.03;5010584;28;20100;-76
2021/08/23 06:51:32;;;;;;;4.18;2.42;;;;;;;17.22;89.08;100611.31;5010759;28;20120;-76
2021/08/23 06:53:59;;;;;;;4.60;2.60;;;;;;;17.28;89.12;100611.09;5009250;28;20417;-77
2021/08/23 06:56:25;;;;;;;3.55;2.53;;;;;;;17.35;89.36;100612.66;5009114;28;20068;-77
2021/08/23 06:58:50;;;;;;;3.97;2.35;;;;;;;17.37;88.37;100616.16;5010691;28;20034;-77
2021/08/23 07:01:16;;;;;;;4.47;3.25;;;;;;;17.33;89.68;100613.63;5010300;28;20091;-77
2021/08/23 07:03:41;;;;;;;4.72;2.30;;;;;;;17.43;89.30;100615.06;5010880;28;20061;-77
2021/08/23 07:06:07;;;;;;;3.33;2.42;;;;;;;17.50;89.26;100617.50;5006468;28;20036;-77
2021/08/23 07:08:32;;;;;;;4.60;2.65;;;;;;;17.65;89.53;100612.53;5010623;28;20488;-77
2021/08/23 07:10:59;;;;;;;4.65;2.70;;;;;;;17.69;87.69;100616.88;5010822;28;20040;-77
2021/08/23 07:13:26;;;;;;;6.22;2.90;;;;;;;17.60;88.33;100612.69;5010765;28;20129;-76
2021/08/23 07:15:51;;;;;;;8.38;2.50;;;;;;;17.62;88.20;100618.88;5009985;28;20139;-76
2021/08/23 07:18:16;;;;;;;3.80;2.63;;;;;;;17.75;88.86;100617.50;5009244;28;20397;-77
2021/08/23 07:20:42;;;;;;;4.15;2.97;;;;;;;17.87;88.05;100607.38;5006901;28;20443;-76
2021/08/23 07:23:07;;;;;;;3.33;2.17;;;;;;;17.95;87.82;100618.66;5011397;28;20658;-76
2021/08/23 07:25:33;;;;;;;3.70;2.40;;;;;;;18.02;87.80;100619.31;5011266;28;20501;-78
2021/08/23 07:28:00;;;;;;;3.70;2.47;;;;;;;18.17;88.15;100616.09;5009700;28;20044;-76
2021/08/23 07:30:25;;;;;;;3.22;2.22;;;;;;;18.33;87.29;100625.28;5009404;28;20044;-77
2021/08/23 07:32:51;;;;;;;3.50;2.30;;;;;;;18.51;86.63;100625.53;5011973;28;20411;-77
2021/08/23 07:35:17;;;;;;;5.05;2.58;;;;;;;18.50;86.62;100619.34;5029078;28;20061;-76
2021/08/23 07:37:46;;;;;;;4.55;2.20;;;;;;;18.52;86.83;100630.84;5013976;28;20038;-76
2021/08/23 07:40:14;;;;;;;3.42;2.30;;;;;;;18.65;86.38;100631.22;5019162;28;20037;-77
2021/08/23 07:42:39;;;;;;;3.25;2.20;;;;;;;18.65;86.61;100630.34;5022412;28;20128;-77
2021/08/23 07:45:05;;;;;;;3.17;2.20;;;;;;;18.71;86.16;100631.00;5024302;28;20122;-77
2021/08/23 07:47:30;;;;;;;3.03;1.95;;;;;;;18.76;85.47;100625.53;5021790;28;20652;-77
2021/08/23 07:49:55;;;;;;;4.53;2.40;;;;;;;18.56;84.73;100632.44;5014629;28;20049;-77
2021/08/23 07:52:21;;;;;;;3.03;2.00;;;;;;;18.38;86.71;100641.16;5014218;28;20034;-78
2021/08/23 07:54:47;;;;;;;4.88;2.53;;;;;;;18.35;86.26;100636.78;5013980;28;20033;-77
2021/08/23 07:57:12;;;;;;;4.78;2.42;;;;;;;18.35;86.77;100644.81;5013304;28;20033;-77
2021/08/23 07:59:37;;;;;;;4.03;2.90;;;;;;;18.27;87.25;100641.56;5013893;28;20076;-77
2021/08/23 08:02:03;;;;;;;6.25;2.55;;;;;;;18.47;87.16;100639.94;5013383;28;20519;-77
2021/08/23 08:04:28;;;;;;;3.88;2.63;;;;;;;18.53;86.79;100643.25;5013340;28;20045;-77
2021/08/23 08:06:54;;;;;;;3.45;2.15;;;;;;;18.15;87.12;100647.31;5013182;28;20069;-77
2021/08/23 08:09:19;;;;;;;1.92;1.00;;;;;;;18.18;85.85;100650.78;5013605;28;20041;-77
2021/08/23 08:11:45;;;;;;;1.02;0.50;;;;;;;18.09;85.59;100648.41;5016141;28;20029;-77
2021/08/23 08:14:10;;;;;;;1.23;0.73;;;;;;;18.06;86.14;100653.00;5013664;28;20046;-78
2021/08/23 08:16:35;;;;;;;3.35;0.65;;;;;;;18.07;85.89;100652.06;5012958;28;20463;-76
2021/08/23 08:19:01;;;;;;;1.13;0.50;;;;;;;17.95;85.41;100659.59;5013200;28;20034;-77
2021/08/23 08:21:26;;;;;;;2.13;0.55;;;;;;;17.75;86.06;100664.69;5013542;28;20033;-77
2021/08/23 08:23:53;;;;;;;0.70;0.40;;;;;;;17.56;87.15;100663.56;5013517;28;20666;-76
2021/08/23 08:26:22;;;;;;;0.73;0.40;;;;;;;17.48;86.77;100672.69;5026406;28;20481;-77
2021/08/23 08:28:48;;;;;;;1.20;0.40;;;;;;;17.40;87.16;100674.75;5013205;28;20025;-77
2021/08/23 08:31:13;;;;;;;1.42;0.47;;;;;;;17.40;86.84;100672.06;5013186;28;20500;-77
2021/08/23 08:33:38;;;;;;;0.85;0.30;;;;;;;17.25;87.53;100676.09;5007139;28;20064;-77
2021/08/23 08:36:04;;;;;;;1.73;0.30;;;;;;;17.31;87.27;100686.56;5027502;28;20045;-77
2021/08/23 08:38:29;;;;;;;0.90;0.50;;;;;;;17.32;87.91;100690.13;5012940;28;20061;-77
2021/08/23 08:40:58;;;;;;;1.00;0.43;;;;;;;17.44;87.17;100689.72;5020070;28;20041;-77
2021/08/23 08:43:24;;;;;;;0.77;0.43;;;;;;;17.38;87.20;100692.59;5010459;28;20046;-77
2021/08/23 08:45:50;;;;;;;1.10;0.50;;;;;;;17.33;87.66;100689.19;5011830;28;20034;-77
2021/08/23 08:48:18;;;;;;;1.13;0.50;;;;;;;17.38;86.78;100697.94;5012461;28;20095;-76
2021/08/23 08:50:44;;;;;;;2.40;0.82;;;;;;;17.27;86.88;100697.41;5012827;28;20701;-77
2021/08/23 08:53:09;;;;;;;4.13;0.77;;;;;;;17.26;87.06;100700.97;5017275;28;20035;-77
2021/08/23 08:55:36;;;;;;;1.35;0.70;;;;;;;17.21;87.08;100705.56;5012596;28;20076;-76
2021/08/23 08:58:05;;;;;;;2.10;1.20;;;;;;;17.02;87.98;100706.13;5012447;28;20088;-77
2021/08/23 09:00:36;;;;;;;1.45;0.98;;;;;;;17.11;88.00;100710.34;5027947;28;20073;-77
2021/08/23 09:03:02;;;;;;;2.38;1.27;;;;;;;16.96;88.23;100710.78;5012661;28;20029;-78
2021/08/23 09:05:42;;;;;;;2.30;1.38;;;;;;;16.99;87.95;100706.22;5012071;28;20568;-77
2021/08/23 09:08:08;;;;;;;2.45;1.20;;;;;;;16.95;88.72;100712.59;4991325;28;20041;-77
2021/08/23 09:10:36;;;;;;;2.70;1.30;;;;;;;17.03;87.46;100717.69;5008162;28;20053;-76
2021/08/23 09:13:09;;;;;;;1.75;1.10;;;;;;;17.08;86.97;100721.97;5010879;28;20742;-77
2021/08/23 09:15:35;;;;;;;2.75;1.17;;;;;;;16.95;87.75;100733.91;5008137;28;20052;-77
2021/08/23 09:18:06;;;;;;;5.43;1.30;;;;;;;17.01;87.04;100725.72;5012255;28;20073;-77
2021/08/23 09:20:33;;;;;;;2.83;1.35;;;;;;;16.85;87.71;100735.97;5012347;28;20496;-77
2021/08/23 09:23:11;;;;;;;2.17;1.30;;;;;;;16.76;88.32;100740.63;5012047;28;20195;-77
2021/08/23 09:25:36;;;;;;;2.95;1.38;;;;;;;16.67;88.95;100740.91;5008271;28;20038;-78
2021/08/23 09:28:06;;;;;;;2.58;1.50;;;;;;;16.60;88.69;100741.06;5012046;28;20045;-76
2021/08/23 09:30:32;;;;;;;3.08;1.23;;;;;;;16.86;88.65;100747.50;5011000;28;20040;-76
2021/08/23 09:33:00;;;;;;;3.30;1.52;;;;;;;16.86;87.37;100736.84;5012164;28;20932;-76
2021/08/23 09:35:28;;;;;;;3.45;1.45;;;;;;;16.85;88.04;100743.09;5011865;28;20080;-77
2021/08/23 09:37:53;;;;;;;3.20;1.30;;;;;;;16.75;87.27;100744.25;5010968;28;20037;-76
2021/08/23 09:40:25;;;;;;;3.72;1.85;;;;;;;16.67;88.71;100754.25;5011477;28;20121;-77
2021/08/23 09:43:16;;;;;;;2.85;1.27;;;;;;;16.85;88.69;100751.09;5009085;28;20544;-77
2021/08/23 09:45:49;;;;;;;3.97;1.83;;;;;;;16.93;88.43;100757.06;5020956;28;20046;-78
2021/08/23 09:48:15;;;;;;;2.78;1.50;;;;;;;16.80;87.46;100758.34;5010529;28;20355;-78
2021/08/23 09:50:46;;;;;;;3.17;1.45;;;;;;;16.76;88.46;100761.97;5011860;28;20034;-78
2021/08/23 09:53:14;;;;;;;3.33;1.60;;;;;;;16.81;88.39;100770.75;5011704;28;20037;-78
2021/08/23 09:55:41;;;;;;;2.75;1.30;;;;;;;16.91;88.03;100766.03;5011373;28;20396;-77
2021/08/23 09:58:09;;;;;;;3.28;1.50;;;;;;;16.80;87.13;100766.34;5011498;28;20483;-78
2021/08/23 10:00:35;;;;;;;2.90;1.52;;;;;;;16.69;88.03;100769.28;5008159;28;20125;-78
2021/08/23 10:03:02;;;;;;;3.67;1.70;;;;;;;16.72;86.90;100766.50;5016114;28;20530;-77
2021/08/23 10:05:29;;;;;;;3.35;1.60;;;;;;;16.74;86.60;100761.13;5015400;28;20073;-77
2021/08/23 10:07:54;;;;;;;2.63;1.40;;;;;;;16.75;86.90;100770.88;5011398;28;20038;-77
2021/08/23 10:10:20;;;;;;;3.35;1.70;;;;;;;16.67;86.75;100776.44;5011450;28;20583;-77
2021/08/23 10:12:46;;;;;;;2.78;1.45;;;;;;;16.81;86.56;100782.28;5006091;28;20041;-78
2021/08/23 10:15:12;;;;;;;4.03;1.42;;;;;;;16.78;86.26;100782.34;5023652;28;20038;-78
2021/08/23 10:17:37;;;;;;;2.22;1.50;;;;;;;16.67;86.82;100788.88;5011061;28;20041;-78
2021/08/23 10:20:09;;;;;;;3.05;1.15;;;;;;;16.81;86.05;100790.25;5009542;28;20619;-76
2021/08/23 10:22:38;;;;;;;2.45;1.30;;;;;;;16.82;85.55;100796.47;5011020;28;20112;-76
2021/08/23 10:25:05;;;;;;;4.45;1.50;;;;;;;16.73;85.49;100804.69;5013110;28;20389;-78
2021/08/23 10:27:35;;;;;;;3.60;1.40;;;;;;;16.65;86.61;100808.44;5010927;28;20467;-77
2021/08/23 10:30:01;;;;;;;2.75;1.35;;;;;;;16.69;86.84;100805.69;5011072;28;20056;-78
2021/08/23 10:32:34;;;;;;;2.30;1.40;;;;;;;16.64;86.78;100808.50;5010914;28;20492;-77
2021/08/23 10:35:22;;;;;;;2.38;1.50;;;;;;;16.58;86.47;100811.31;5011167;28;20048;-77
2021/08/23 10:37:50;;;;;;;3.15;1.60;;;;;;;16.44;86.60;100815.19;5009286;28;20052;-78
2021/08/23 10:40:20;;;;;;;2.88;1.40;;;;;;;16.49;87.31;100809.75;5011208;28;20038;-76
2021/08/23 10:42:49;;;;;;;2.75;1.67;;;;;;;16.53;86.91;100818.53;5007959;28;20042;-77
2021/08/23 10:45:17;;;;;;;2.30;1.50;;;;;;;16.55;86.81;100822.03;5009928;28;20086;-77
2021/08/23 10:47:46;;;;;;;3.60;1.67;;;;;;;16.54;86.94;100825.63;5006484;28;20053;-78
2021/08/23 10:50:22;;;;;;;3.30;1.30;;;;;;;16.46;85.96;100828.50;5011271;28;20057;-79
2021/08/23 10:52:49;;;;;;;3.10;1.30;;;;;;;16.45;86.09;100821.41;5007660;28;20065;-79
2021/08/23 10:55:31;;;;;;;3.08;1.30;;;;;;;16.48;85.80;100829.34;5015160;28;20566;-77
2021/08/23 10:58:08;;;;;;;3.13;1.20;;;;;;;16.41;86.74;100819.75;5014656;28;20113;-77
2021/08/23 11:00:35;;;;;;;1.58;1.05;;;;;;;16.26;85.69;100828.13;5010060;28;20045;-77
2021/08/23 11:03:01;;;;;;;2.75;1.40;;;;;;;16.20;87.07;100827.34;5016565;28;20045;-78
2021/08/23 11:05:27;;;;;;;3.20;1.20;;;;;;;16.34;87.26;100828.81;5014495;28;20037;-77
2021/08/23 11:08:00;;;;;;;2.67;1.13;;;;;;;16.51;86.75;100837.25;5014658;28;20050;-78
2021/08/23 11:10:26;;;;;;;1.80;0.80;;;;;;;16.54;85.61;100834.50;5014747;28;20042;-78
2021/08/23 11:13:08;;;;;;;2.42;0.98;;;;;;;16.53;85.50;100845.19;5014801;28;20099;-77
2021/08/23 11:15:34;;;;;;;1.73;0.80;;;;;;;16.55;85.36;100843.34;5011024;28;20549;-77
2021/08/23 11:18:05;;;;;;;2.17;0.90;;;;;;;16.37;85.40;100847.38;5014585;28;20025;-78
2021/08/23 11:20:33;;;;;;;1.40;0.82;;;;;;;16.48;84.90;100850.66;5009264;28;20095;-77
2021/08/23 11:23:07;;;;;;;5.30;3.10;;;;;;;16.35;85.05;100846.56;5014601;28;20068;-78